Time;durP1;ratioP1;P1;durP2;ratioP2;P2;SDS_P1;SDS_P2;PMS_P1;PMS_P2;Temp;Humidity;BMP_temperature;BMP_pressure;BME280_temperature;BME280_humidity;BME280_pressure;Samples;Min_cycle;Max_cycle;Signal;HPM_P1;HPM_P2
2022/11/15 00:01:29;;;;;;;11.35;9.55;;;;;;;4.31;94.65;100700.06;1765934;79;21587;-75
2022/11/15 00:04:15;;;;;;;10.88;8.30;;;;;;;4.41;94.85;100700.28;1763677;79;21040;-73
2022/11/15 00:07:01;;;;;;;11.75;8.58;;;;;;;4.46;94.88;100701.34;1734752;81;21103;-74
2022/11/15 00:09:48;;;;;;;13.30;10.05;;;;;;;4.45;94.71;100701.55;1762031;79;21479;-74
2022/11/15 00:12:34;;;;;;;8.90;7.70;;;;;;;4.43;94.64;100700.90;1774175;79;22158;-82
2022/11/15 00:15:20;;;;;;;10.28;7.90;;;;;;;4.46;94.81;100690.69;1746305;80;21030;-75
2022/11/15 00:18:08;;;;;;;12.25;8.38;;;;;;;4.50;94.76;100681.84;1777879;78;21145;-73
2022/11/15 00:20:54;;;;;;;16.15;14.47;;;;;;;4.53;94.75;100676.97;1781604;78;21929;-72
2022/11/15 00:23:39;;;;;;;13.53;10.60;;;;;;;4.58;94.64;100669.75;1778719;78;20930;-75
2022/11/15 00:26:24;;;;;;;14.03;8.93;;;;;;;4.57;94.23;100664.09;1781662;80;20971;-80
2022/11/15 00:29:11;;;;;;;14.23;10.40;;;;;;;4.52;94.10;100655.33;1787767;78;20975;-74
2022/11/15 00:31:55;;;;;;;13.32;9.50;;;;;;;4.52;94.19;100648.67;1783474;79;21090;-76
2022/11/15 00:34:42;;;;;;;12.98;10.68;;;;;;;4.57;94.46;100644.11;1791438;78;21231;-70
2022/11/15 00:37:27;;;;;;;13.83;10.38;;;;;;;4.58;94.22;100640.44;1776779;78;21042;-75
2022/11/15 00:40:12;;;;;;;12.50;9.73;;;;;;;4.55;94.24;100638.16;1775773;78;21027;-68
2022/11/15 00:42:58;;;;;;;11.40;10.13;;;;;;;4.53;94.34;100634.34;1788456;78;21040;-70
2022/11/15 00:45:45;;;;;;;16.82;9.95;;;;;;;4.48;94.33;100636.74;1785333;80;21031;-71
2022/11/15 00:48:31;;;;;;;11.95;9.63;;;;;;;4.47;94.47;100636.92;1778406;79;21381;-70
2022/11/15 00:51:16;;;;;;;13.13;11.48;;;;;;;4.43;94.54;100640.47;1787148;78;21063;-70
2022/11/15 00:54:01;;;;;;;10.32;9.28;;;;;;;4.38;94.72;100649.02;1788524;80;20951;-69
2022/11/15 00:56:47;;;;;;;12.07;10.08;;;;;;;4.33;94.87;100638.60;1787836;79;21383;-68
2022/11/15 00:59:34;;;;;;;18.75;10.08;;;;;;;4.33;94.91;100639.43;1782655;80;20991;-69
2022/11/15 01:02:19;;;;;;;10.15;8.85;;;;;;;4.36;94.86;100631.59;1780328;79;21334;-74
2022/11/15 01:05:05;;;;;;;11.95;9.68;;;;;;;4.32;94.89;100626.29;1786228;78;21563;-75
2022/11/15 01:07:53;;;;;;;10.28;9.18;;;;;;;4.26;95.10;100618.57;1732593;81;21019;-72
2022/11/15 01:10:39;;;;;;;12.70;10.05;;;;;;;4.31;95.48;100616.17;1787847;78;20918;-77
2022/11/15 01:13:24;;;;;;;12.75;9.40;;;;;;;4.33;95.52;100611.47;1765116;80;21039;-65
2022/11/15 01:16:12;;;;;;;10.20;9.20;;;;;;;4.34;95.25;100606.47;1789460;78;21291;-66
2022/11/15 01:18:58;;;;;;;9.43;8.40;;;;;;;4.28;95.12;100604.55;1791591;80;21058;-67
2022/11/15 01:21:44;;;;;;;10.70;8.88;;;;;;;4.30;95.15;100604.37;1750762;80;21038;-73
2022/11/15 01:24:31;;;;;;;9.78;8.63;;;;;;;4.24;95.10;100602.44;1758999;81;21021;-75
2022/11/15 01:27:16;;;;;;;14.55;9.55;;;;;;;4.19;95.13;100599.51;1792795;78;21078;-68
2022/11/15 01:30:01;;;;;;;10.45;9.20;;;;;;;4.13;95.19;100597.08;1765608;80;21050;-69
2022/11/15 01:32:46;;;;;;;10.55;8.28;;;;;;;4.10;95.16;100600.13;1751184;81;20998;-76
2022/11/15 01:35:31;;;;;;;12.73;8.20;;;;;;;4.12;95.16;100594.62;1787710;78;21460;-73
2022/11/15 01:38:16;;;;;;;9.93;8.40;;;;;;;4.20;95.31;100585.19;1772962;79;22329;-68
2022/11/15 01:41:01;;;;;;;11.30;9.00;;;;;;;4.22;94.65;100584.52;1771592;80;21051;-70
2022/11/15 01:43:51;;;;;;;11.73;8.63;;;;;;;4.19;94.46;100581.70;1761448;80;21249;-70
2022/11/15 01:46:36;;;;;;;12.23;9.23;;;;;;;4.18;94.29;100580.55;1787995;78;20983;-77
2022/11/15 01:49:22;;;;;;;10.30;8.88;;;;;;;4.13;94.14;100571.79;1761364;80;21059;-73
2022/11/15 01:52:13;;;;;;;12.20;9.60;;;;;;;4.16;94.24;100578.59;1791335;80;20970;-75
2022/11/15 01:55:13;;;;;;;10.00;8.45;;;;;;;4.19;94.29;100568.89;1794485;79;22159;-74
2022/11/15 01:58:01;;;;;;;13.80;10.78;;;;;;;4.26;94.30;100571.14;1763610;80;21034;-74
2022/11/15 02:00:47;;;;;;;15.08;9.20;;;;;;;4.27;94.04;100559.45;1786722;78;20928;-70
2022/11/15 02:03:51;;;;;;;11.30;8.98;;;;;;;4.30;94.04;100559.93;1756992;80;21485;-67
2022/11/15 02:06:36;;;;;;;11.03;8.58;;;;;;;4.32;93.79;100559.22;1732269;80;21023;-70
2022/11/15 02:09:21;;;;;;;10.00;8.28;;;;;;;4.35;93.48;100555.37;1723955;80;21614;-71
2022/11/15 02:12:08;;;;;;;12.98;9.40;;;;;;;4.38;93.37;100558.97;1742391;81;20976;-70
2022/11/15 02:14:54;;;;;;;11.53;8.75;;;;;;;4.38;92.94;100553.65;1744532;81;21091;-74
2022/11/15 02:18:00;;;;;;;15.23;9.80;;;;;;;4.32;92.70;100553.89;1738340;81;21021;-72
2022/11/15 02:21:08;;;;;;;9.38;8.48;;;;;;;4.28;92.78;100551.29;1766485;79;20959;-74
2022/11/15 02:24:25;;;;;;;9.65;8.48;;;;;;;4.27;92.74;100542.14;1739834;81;21084;-73
2022/11/15 02:27:49;;;;;;;11.53;10.32;;;;;;;4.30;92.85;100540.46;1720941;81;21225;-79
2022/11/15 02:30:45;;;;;;;9.03;8.03;;;;;;;4.27;92.45;100546.14;1725618;81;21031;-67
2022/11/15 02:34:06;;;;;;;11.00;7.90;;;;;;;4.29;92.48;100537.47;1740845;81;21094;-68
2022/11/15 02:37:26;;;;;;;8.08;7.28;;;;;;;4.25;92.28;100538.36;1735149;82;21081;-69
2022/11/15 02:40:38;;;;;;;11.48;7.60;;;;;;;4.19;92.42;100543.09;1737176;81;21552;-69
2022/11/15 02:43:58;;;;;;;10.18;8.33;;;;;;;4.19;92.51;100540.44;1737074;81;21408;-72
2022/11/15 02:50:00;;;;;;;10.63;8.20;;;;;;;4.20;92.70;100525.29;1736700;81;21020;-75
2022/11/15 02:52:46;;;;;;;10.08;7.67;;;;;;;4.25;92.63;100525.55;1738649;81;21068;-71
2022/11/15 02:55:38;;;;;;;12.00;7.72;;;;;;;4.23;92.27;100520.91;1737843;81;21056;-67
2022/11/15 02:59:03;;;;;;;10.32;7.78;;;;;;;4.17;92.22;100520.35;1714418;81;21258;-71
2022/11/15 03:02:23;;;;;;;9.03;7.70;;;;;;;4.12;92.39;100516.09;1719035;82;21055;-76
2022/11/15 03:05:17;;;;;;;9.43;7.30;;;;;;;4.11;92.59;100515.77;1733661;81;21509;-71
2022/11/15 03:08:24;;;;;;;11.12;9.18;;;;;;;4.15;92.77;100501.06;1738905;81;21035;-71
2022/11/15 03:11:12;;;;;;;9.00;7.83;;;;;;;4.14;92.70;100494.09;1738510;81;21031;-73
2022/11/15 03:14:12;;;;;;;9.30;8.03;;;;;;;4.10;92.86;100488.32;1739106;81;21922;-71
2022/11/15 03:17:09;;;;;;;9.78;8.18;;;;;;;4.13;93.02;100488.44;1734582;81;20945;-73
2022/11/15 03:19:57;;;;;;;11.33;7.80;;;;;;;4.13;93.03;100491.10;1739044;81;21437;-73
2022/11/15 03:22:44;;;;;;;12.93;8.70;;;;;;;4.13;93.05;100484.45;1735161;81;21563;-73
2022/11/15 03:25:29;;;;;;;12.80;8.30;;;;;;;4.13;93.08;100483.11;1714331;82;21009;-73
2022/11/15 03:28:19;;;;;;;11.45;9.10;;;;;;;4.14;93.01;100482.11;1739223;81;21113;-71
2022/11/15 03:31:46;;;;;;;10.23;8.03;;;;;;;4.12;93.00;100482.32;1737645;81;20991;-71
2022/11/15 03:33:51;;;;;;;9.83;8.53;;;;;;;4.16;93.16;100483.59;1734836;81;21113;-71
2022/11/15 03:36:36;;;;;;;10.63;8.73;;;;;;;4.20;92.99;100475.53;1738481;81;21035;-73
2022/11/15 03:39:23;;;;;;;16.30;10.00;;;;;;;4.19;92.81;100472.55;1737916;82;21066;-76
2022/11/15 03:42:34;;;;;;;13.00;9.38;;;;;;;4.15;92.75;100463.80;1743754;81;21014;-73
2022/11/15 03:45:40;;;;;;;7.70;6.65;;;;;;;4.14;92.93;100466.97;1741749;82;20960;-72
2022/11/15 03:48:28;;;;;;;9.88;8.35;;;;;;;4.18;93.07;100460.75;1741171;81;20932;-72
2022/11/15 03:51:13;;;;;;;14.43;8.63;;;;;;;4.24;93.01;100456.83;1735531;81;21038;-73
2022/11/15 03:53:59;;;;;;;11.93;8.50;;;;;;;4.23;92.89;100450.36;1709936;83;21002;-73
2022/11/15 03:56:44;;;;;;;10.08;8.58;;;;;;;4.17;92.93;100443.95;1725981;81;21195;-75
2022/11/15 03:59:29;;;;;;;15.03;8.70;;;;;;;4.11;93.13;100447.39;1717699;81;20989;-74
2022/11/15 04:02:13;;;;;;;10.58;7.80;;;;;;;4.09;93.30;100444.58;1750642;81;21069;-71
2022/11/15 04:04:59;;;;;;;11.05;9.10;;;;;;;4.06;93.54;100447.63;1749850;81;21051;-71
2022/11/15 04:07:44;;;;;;;8.18;6.80;;;;;;;4.02;93.78;100446.37;1769835;81;20999;-73
2022/11/15 04:10:29;;;;;;;9.65;8.08;;;;;;;4.02;94.11;100443.20;1744062;81;21156;-73
2022/11/15 04:13:14;;;;;;;8.80;7.90;;;;;;;4.04;93.89;100445.66;1733553;80;20935;-72
2022/11/15 04:15:59;;;;;;;10.65;9.18;;;;;;;4.05;94.00;100441.98;1739264;81;21018;-72
2022/11/15 04:24:11;;;;;;;14.28;9.10;;;;;;;4.02;94.06;100437.88;1739248;82;21523;-71
2022/11/15 04:24:37;;;;;;;11.00;7.78;;;;;;;4.01;94.26;100423.42;1710588;83;21164;-73
2022/11/15 04:27:22;;;;;;;10.80;8.28;;;;;;;3.99;94.39;100428.92;1710991;83;21150;-75
2022/11/15 04:30:09;;;;;;;10.28;8.28;;;;;;;4.01;94.50;100421.59;1688429;83;21072;-74
2022/11/15 04:32:54;;;;;;;10.18;9.05;;;;;;;4.03;94.51;100415.55;1680317;85;21080;-72
2022/11/15 04:35:39;;;;;;;9.35;8.45;;;;;;;4.00;94.44;100411.13;1682354;85;21650;-72
2022/11/15 04:38:24;;;;;;;11.03;8.05;;;;;;;4.00;94.41;100415.94;1694431;83;22034;-72
2022/11/15 04:41:08;;;;;;;10.78;9.00;;;;;;;4.04;94.37;100409.72;1709776;83;20956;-72
2022/11/15 04:43:54;;;;;;;11.75;10.48;;;;;;;4.02;94.22;100410.44;1710751;83;21016;-73
2022/11/15 04:46:39;;;;;;;11.83;8.03;;;;;;;4.06;94.16;100410.37;1710932;83;21043;-73
2022/11/15 04:49:24;;;;;;;11.53;9.33;;;;;;;4.10;94.04;100405.80;1711087;83;21121;-72
2022/11/15 04:52:10;;;;;;;10.78;9.63;;;;;;;4.09;93.77;100404.66;1705956;83;21236;-71
2022/11/15 04:54:54;;;;;;;14.65;8.05;;;;;;;4.09;93.71;100407.31;1710955;83;21014;-73
2022/11/15 04:57:39;;;;;;;13.45;7.87;;;;;;;4.12;93.84;100395.80;1711092;83;21593;-73
2022/11/15 05:00:24;;;;;;;9.33;8.43;;;;;;;4.15;93.41;100393.25;1710065;83;21199;-72
2022/11/15 05:06:14;;;;;;;14.03;9.45;;;;;;;4.13;93.31;100383.29;1731581;82;21522;-73
2022/11/15 05:08:59;;;;;;;9.25;8.35;;;;;;;4.19;93.25;100387.86;1703198;84;20967;-72
2022/11/15 05:11:44;;;;;;;13.62;10.30;;;;;;;4.15;92.56;100382.10;1731704;82;20991;-73
2022/11/15 05:14:29;;;;;;;13.88;10.13;;;;;;;4.10;92.76;100390.34;1717984;82;21031;-72
2022/11/15 05:17:16;;;;;;;11.12;9.58;;;;;;;4.13;92.88;100380.13;1710080;83;21102;-74
2022/11/15 05:20:04;;;;;;;14.93;11.38;;;;;;;4.18;92.85;100380.88;1686113;83;21032;-72
2022/11/15 05:22:50;;;;;;;19.65;12.33;;;;;;;4.16;92.86;100382.42;1710070;83;20966;-72
2022/11/15 05:25:36;;;;;;;14.87;11.85;;;;;;;4.20;92.88;100382.86;1711524;83;21060;-73
2022/11/15 05:28:21;;;;;;;18.57;13.18;;;;;;;4.25;92.91;100377.78;1711380;83;21053;-70
2022/11/15 05:31:11;;;;;;;16.87;12.03;;;;;;;4.27;92.85;100381.88;1711671;82;21075;-69
2022/11/15 05:33:58;;;;;;;20.05;12.30;;;;;;;4.32;92.74;100368.81;1722926;83;20961;-74
2022/11/15 05:36:44;;;;;;;19.73;12.30;;;;;;;4.30;92.63;100370.05;1699499;83;21088;-73
2022/11/15 05:39:30;;;;;;;16.95;13.13;;;;;;;4.26;92.76;100366.13;1663391;85;21708;-73
2022/11/15 05:42:15;;;;;;;22.22;13.95;;;;;;;4.24;92.88;100369.47;1710938;82;21053;-70
2022/11/15 05:45:02;;;;;;;17.65;13.75;;;;;;;4.24;93.07;100366.30;1711369;83;21081;-70
2022/11/15 05:47:47;;;;;;;20.90;13.78;;;;;;;4.15;93.17;100368.79;1711567;83;21234;-73
2022/11/15 05:50:35;;;;;;;18.05;13.75;;;;;;;4.14;92.98;100360.98;1713709;82;21015;-72
2022/11/15 05:53:21;;;;;;;18.12;14.28;;;;;;;4.13;92.94;100360.16;1711531;82;21065;-71
2022/11/15 05:56:08;;;;;;;16.65;11.70;;;;;;;4.17;92.97;100352.10;1682978;83;21117;-72
2022/11/15 05:58:55;;;;;;;18.55;12.90;;;;;;;4.23;92.97;100353.17;1679869;84;21002;-72
2022/11/15 06:01:40;;;;;;;18.27;13.48;;;;;;;4.26;92.89;100344.83;1695352;83;21383;-72
2022/11/15 06:04:26;;;;;;;21.60;14.80;;;;;;;4.27;92.56;100343.28;1703179;84;21057;-72
2022/11/15 06:07:11;;;;;;;21.82;13.35;;;;;;;4.26;92.41;100350.15;1702766;84;21695;-73
2022/11/15 06:09:56;;;;;;;20.62;14.13;;;;;;;4.26;92.58;100339.50;1705443;83;21113;-71
2022/11/15 06:12:42;;;;;;;21.62;15.05;;;;;;;4.28;92.65;100344.11;1700887;82;21006;-71
2022/11/15 06:15:28;;;;;;;19.82;14.40;;;;;;;4.29;92.49;100345.25;1723259;81;22038;-72
2022/11/15 06:18:13;;;;;;;23.32;14.07;;;;;;;4.30;92.50;100338.92;1723192;83;21052;-73
2022/11/15 06:21:00;;;;;;;26.45;15.15;;;;;;;4.29;92.49;100341.77;1691941;82;21763;-72
2022/11/15 06:23:46;;;;;;;20.55;15.60;;;;;;;4.31;92.58;100343.73;1742585;81;20940;-70
2022/11/15 06:26:31;;;;;;;26.27;15.83;;;;;;;4.34;92.53;100344.16;1741834;82;21064;-72
2022/11/15 06:29:18;;;;;;;22.93;14.30;;;;;;;4.34;92.50;100334.84;1742061;82;21245;-72
2022/11/15 06:32:03;;;;;;;27.37;15.50;;;;;;;4.39;92.60;100332.42;1741607;81;21076;-72
2022/11/15 06:34:48;;;;;;;24.75;15.72;;;;;;;4.44;92.49;100341.67;1736758;82;20960;-73
2022/11/15 06:37:33;;;;;;;22.15;15.88;;;;;;;4.44;92.31;100339.83;1742395;82;21015;-73
2022/11/15 06:40:19;;;;;;;28.77;17.80;;;;;;;4.42;92.36;100340.52;1742502;81;21037;-73
2022/11/15 06:43:04;;;;;;;25.80;15.00;;;;;;;4.48;92.46;100337.59;1712956;83;21786;-72
2022/11/15 06:45:49;;;;;;;26.05;16.67;;;;;;;4.53;92.35;100333.34;1739157;82;20956;-72
2022/11/15 06:48:36;;;;;;;27.50;15.93;;;;;;;4.57;92.39;100337.76;1742531;82;20959;-74
2022/11/15 06:51:21;;;;;;;24.55;15.30;;;;;;;4.62;92.18;100338.00;1751732;80;21006;-71
2022/11/15 06:54:06;;;;;;;24.10;17.52;;;;;;;4.65;91.98;100325.10;1732742;82;20997;-74
2022/11/15 06:56:51;;;;;;;21.50;15.45;;;;;;;4.65;91.45;100341.63;1742428;82;21251;-72
2022/11/15 06:59:37;;;;;;;25.43;15.75;;;;;;;4.64;91.21;100335.47;1742687;82;20969;-74
2022/11/15 07:02:22;;;;;;;23.50;16.27;;;;;;;4.65;90.98;100322.44;1740406;81;21532;-73
2022/11/15 07:05:08;;;;;;;29.77;14.33;;;;;;;4.63;90.59;100325.83;1742507;82;21066;-71
2022/11/15 07:07:55;;;;;;;25.90;15.40;;;;;;;4.59;90.48;100346.39;1719746;82;21452;-77
2022/11/15 07:10:41;;;;;;;19.40;13.95;;;;;;;4.56;90.20;100329.45;1742128;81;21099;-74
2022/11/15 07:13:27;;;;;;;25.75;14.28;;;;;;;4.56;90.24;100328.11;1742613;82;21199;-79
2022/11/15 07:16:12;;;;;;;21.62;14.38;;;;;;;4.54;90.19;100320.84;1713039;83;21029;-77
2022/11/15 07:18:58;;;;;;;23.60;15.88;;;;;;;4.52;90.19;100329.02;1721340;82;21032;-76
2022/11/15 07:21:43;;;;;;;32.15;17.07;;;;;;;4.53;90.37;100313.36;1740387;81;21112;-75
2022/11/15 07:24:28;;;;;;;24.90;16.10;;;;;;;4.56;90.49;100309.47;1742485;81;21254;-70
2022/11/15 07:27:15;;;;;;;26.10;16.97;;;;;;;4.56;90.46;100317.45;1733467;82;21093;-70
2022/11/15 07:30:02;;;;;;;20.70;13.85;;;;;;;4.53;90.44;100306.70;1755826;80;21038;-75
2022/11/15 07:32:47;;;;;;;22.77;14.47;;;;;;;4.53;90.41;100302.70;1739080;82;20947;-75
2022/11/15 07:35:32;;;;;;;16.82;10.98;;;;;;;4.56;90.53;100306.80;1713801;82;21050;-70
2022/11/15 07:38:20;;;;;;;20.65;13.70;;;;;;;4.56;90.26;100305.47;1741624;82;21810;-71
2022/11/15 07:41:06;;;;;;;17.40;11.53;;;;;;;4.55;90.18;100303.34;1744174;81;21479;-75
2022/11/15 07:43:53;;;;;;;19.17;12.40;;;;;;;4.57;90.02;100289.81;1738199;81;21013;-72
2022/11/15 07:46:38;;;;;;;16.45;11.35;;;;;;;4.59;89.88;100288.61;1724346;81;21051;-74
2022/11/15 07:49:25;;;;;;;17.30;11.80;;;;;;;4.58;89.49;100289.62;1739090;82;21071;-71
2022/11/15 07:52:09;;;;;;;22.42;12.98;;;;;;;4.51;89.58;100286.62;1739126;82;21561;-72
2022/11/15 07:54:56;;;;;;;15.78;11.53;;;;;;;4.47;89.80;100281.34;1738807;81;21039;-71
2022/11/15 07:57:41;;;;;;;18.85;12.45;;;;;;;4.51;90.02;100281.30;1738925;82;20988;-72
2022/11/15 08:00:26;;;;;;;15.32;11.18;;;;;;;4.59;90.18;100275.30;1738279;81;21561;-72
2022/11/15 08:03:14;;;;;;;16.02;10.78;;;;;;;4.66;89.88;100265.48;1739035;81;21041;-72
2022/11/15 08:05:59;;;;;;;22.45;14.45;;;;;;;4.67;89.52;100262.31;1735793;81;21436;-74
2022/11/15 08:08:46;;;;;;;15.68;11.45;;;;;;;4.65;89.44;100259.03;1743208;81;21020;-72
2022/11/15 08:11:32;;;;;;;21.55;12.78;;;;;;;4.64;89.62;100252.05;1666868;83;20934;-73
2022/11/15 08:14:23;;;;;;;20.90;12.55;;;;;;;4.68;89.87;100235.98;1734850;80;21085;-73
2022/11/15 08:17:08;;;;;;;17.20;11.70;;;;;;;4.67;89.80;100240.48;1737155;82;21014;-72
2022/11/15 08:19:54;;;;;;;14.03;11.45;;;;;;;4.68;89.94;100237.31;1736577;82;22198;-72
2022/11/15 08:22:39;;;;;;;18.45;11.53;;;;;;;4.70;89.56;100249.41;1736517;81;21093;-72
2022/11/15 08:25:28;;;;;;;16.17;10.35;;;;;;;4.73;89.66;100234.88;1736925;81;21061;-71
2022/11/15 08:28:14;;;;;;;14.35;10.20;;;;;;;4.78;89.69;100239.11;1736923;81;21089;-71
2022/11/15 08:30:59;;;;;;;17.92;11.88;;;;;;;4.83;89.56;100234.00;1711753;82;21072;-73
2022/11/15 08:33:44;;;;;;;17.20;12.53;;;;;;;4.89;89.44;100229.22;1736434;82;21806;-70
2022/11/15 08:36:30;;;;;;;14.40;11.33;;;;;;;4.93;89.08;100225.12;1734448;82;21085;-68
2022/11/15 08:39:15;;;;;;;14.45;11.60;;;;;;;4.97;88.96;100235.69;1708684;82;21550;-72
2022/11/15 08:42:01;;;;;;;13.98;10.00;;;;;;;4.97;88.73;100223.70;1736528;81;21378;-71
2022/11/15 08:44:46;;;;;;;14.93;11.38;;;;;;;5.01;88.68;100218.78;1736908;81;21097;-71
2022/11/15 08:47:31;;;;;;;19.73;13.15;;;;;;;5.03;88.41;100227.41;1735796;82;21132;-72
2022/11/15 08:50:17;;;;;;;21.97;12.63;;;;;;;5.03;88.21;100212.75;1736914;82;21061;-71
2022/11/15 08:53:08;;;;;;;17.45;11.38;;;;;;;5.03;87.99;100230.08;1736717;81;21534;-72
2022/11/15 08:55:54;;;;;;;15.85;11.35;;;;;;;5.07;87.57;100210.81;1736540;82;21480;-71
2022/11/15 08:58:39;;;;;;;14.78;11.28;;;;;;;5.09;87.07;100236.73;1735070;82;21042;-69
2022/11/15 09:01:25;;;;;;;17.42;11.90;;;;;;;5.04;86.28;100206.37;1736069;81;22072;-69
2022/11/15 09:04:10;;;;;;;15.65;12.55;;;;;;;5.02;85.84;100213.77;1726530;83;20959;-70
2022/11/15 09:06:55;;;;;;;18.75;12.45;;;;;;;4.95;85.23;100223.06;1685344;85;21093;-69
2022/11/15 09:09:40;;;;;;;16.32;12.13;;;;;;;4.91;84.95;100211.16;1685236;85;21365;-71
2022/11/15 09:12:25;;;;;;;18.90;13.85;;;;;;;4.90;84.86;100217.52;1703180;81;21089;-69
2022/11/15 09:15:10;;;;;;;20.23;14.80;;;;;;;4.89;84.83;100206.56;1751890;81;21701;-69
2022/11/15 09:18:00;;;;;;;17.12;11.93;;;;;;;4.84;84.92;100205.80;1750641;80;21579;-71
2022/11/15 09:20:45;;;;;;;18.70;14.43;;;;;;;4.80;85.06;100195.74;1763109;81;21035;-70
2022/11/15 09:23:31;;;;;;;20.37;15.25;;;;;;;4.79;85.23;100196.79;1747792;81;21528;-71
2022/11/15 09:26:16;;;;;;;17.50;13.78;;;;;;;4.77;85.19;100186.83;1743761;81;21110;-70
2022/11/15 09:29:01;;;;;;;16.48;13.10;;;;;;;4.76;85.41;100172.68;1765391;81;21247;-72
2022/11/15 09:31:46;;;;;;;19.67;15.60;;;;;;;4.78;85.58;100170.65;1763422;80;21035;-72
2022/11/15 09:34:33;;;;;;;25.25;16.57;;;;;;;4.81;85.66;100168.91;1743442;81;21530;-71
2022/11/15 09:37:18;;;;;;;23.02;17.42;;;;;;;4.86;85.71;100156.31;1744514;82;21045;-71
2022/11/15 09:40:04;;;;;;;24.05;17.07;;;;;;;4.93;85.74;100153.67;1747161;80;21098;-73
2022/11/15 09:43:03;;;;;;;30.57;21.02;;;;;;;4.98;85.39;100148.55;1772009;80;21105;-70
2022/11/15 09:46:28;;;;;;;29.57;21.15;;;;;;;4.96;85.16;100141.26;1743145;82;21015;-72
2022/11/15 09:49:15;;;;;;;27.17;17.87;;;;;;;4.89;85.13;100139.94;1738229;80;20934;-69
2022/11/15 09:51:53;;;;;;;31.57;20.05;;;;;;;4.81;84.88;100134.77;1717909;82;20987;-71
2022/11/15 09:54:36;;;;;;;35.65;20.27;;;;;;;4.79;85.17;100127.00;1747608;81;20975;-71
2022/11/15 09:57:16;;;;;;;29.02;21.17;;;;;;;4.81;85.08;100134.27;1762325;81;21952;-72
2022/11/15 09:59:48;;;;;;;20.25;15.72;;;;;;;4.84;84.85;100133.84;1762539;81;20950;-72
2022/11/15 10:02:47;;;;;;;25.40;17.23;;;;;;;4.80;84.10;100124.62;1765700;81;21015;-73
2022/11/15 10:05:18;;;;;;;23.07;16.27;;;;;;;4.77;84.03;100113.55;1765489;81;21097;-71
2022/11/15 10:08:27;;;;;;;22.27;15.43;;;;;;;4.79;84.21;100132.33;1766008;81;20966;-72
2022/11/15 10:11:08;;;;;;;24.98;16.35;;;;;;;4.79;83.89;100123.51;1748999;81;21312;-72
2022/11/15 10:13:38;;;;;;;19.37;14.47;;;;;;;4.77;83.68;100116.22;1741262;81;20978;-72
2022/11/15 10:16:56;;;;;;;31.52;15.18;;;;;;;4.78;83.64;100101.37;1733895;82;21063;-71
2022/11/15 10:19:52;;;;;;;31.77;16.37;;;;;;;4.81;83.64;100108.95;1735584;82;22199;-71
2022/11/15 10:22:34;;;;;;;31.27;16.67;;;;;;;4.84;83.65;100102.41;1735569;82;20990;-72
2022/11/15 10:25:12;;;;;;;29.70;17.40;;;;;;;4.88;83.59;100093.49;1735070;82;21300;-72
2022/11/15 10:27:41;;;;;;;19.35;16.10;;;;;;;4.89;83.60;100089.30;1734189;82;21531;-71
2022/11/15 10:30:16;;;;;;;15.78;12.23;;;;;;;4.91;83.62;100107.22;1735384;82;20975;-72
2022/11/15 10:32:45;;;;;;;30.92;15.60;;;;;;;4.90;83.64;100084.77;1735946;82;21097;-70
2022/11/15 10:35:28;;;;;;;18.95;13.50;;;;;;;4.87;83.75;100075.85;1735855;82;20999;-71
2022/11/15 10:38:08;;;;;;;24.52;15.20;;;;;;;4.88;83.92;100070.33;1734849;82;21142;-70
2022/11/15 10:40:35;;;;;;;17.57;13.40;;;;;;;4.84;84.08;100061.89;1735613;82;21022;-72
2022/11/15 10:43:18;;;;;;;22.70;16.45;;;;;;;4.86;84.24;100058.22;1735656;82;20961;-72
2022/11/15 10:45:46;;;;;;;21.85;13.85;;;;;;;4.86;84.25;100063.55;1736074;82;21053;-73
2022/11/15 10:48:20;;;;;;;19.25;14.95;;;;;;;4.86;84.32;100048.38;1734209;82;21644;-72
2022/11/15 10:50:48;;;;;;;23.98;15.85;;;;;;;4.86;84.42;100043.05;1735858;82;21247;-73
2022/11/15 10:53:26;;;;;;;19.42;14.63;;;;;;;4.88;84.54;100030.86;1735467;82;21024;-72
2022/11/15 10:55:56;;;;;;;18.17;13.38;;;;;;;4.92;84.64;100021.43;1735733;82;21084;-71
2022/11/15 10:58:44;;;;;;;21.93;15.85;;;;;;;4.97;84.56;100013.13;1735107;82;21511;-72
2022/11/15 11:01:23;;;;;;;22.37;16.35;;;;;;;5.03;84.58;100007.50;1735802;82;21147;-72
2022/11/15 11:04:06;;;;;;;21.48;15.98;;;;;;;5.10;84.46;100012.30;1735721;82;22194;-71
2022/11/15 11:06:58;;;;;;;21.07;15.55;;;;;;;5.13;84.37;100007.91;1734732;82;21029;-71
2022/11/15 11:09:38;;;;;;;21.73;15.80;;;;;;;5.17;84.19;100003.79;1735412;81;21057;-72
2022/11/15 11:12:12;;;;;;;19.77;13.72;;;;;;;5.14;84.01;99995.67;1735775;82;20982;-77
2022/11/15 11:14:39;;;;;;;22.13;17.23;;;;;;;5.06;84.25;99985.75;1739549;82;21056;-72
2022/11/15 11:17:15;;;;;;;26.30;19.07;;;;;;;4.96;84.54;99988.83;1740940;81;21197;-71
2022/11/15 11:19:58;;;;;;;22.85;17.27;;;;;;;4.96;85.01;99982.17;1741131;82;21131;-69
2022/11/15 11:22:48;;;;;;;24.27;17.12;;;;;;;4.99;85.11;99977.74;1741337;82;21569;-70
2022/11/15 11:25:38;;;;;;;24.90;19.45;;;;;;;5.00;85.29;99968.73;1740150;82;21504;-69
2022/11/15 11:28:44;;;;;;;26.12;19.07;;;;;;;5.02;85.48;99967.20;1708161;81;21081;-69
2022/11/15 11:31:49;;;;;;;27.35;18.70;;;;;;;5.03;85.71;99960.34;1739014;81;21163;-73
2022/11/15 11:34:40;;;;;;;27.60;20.40;;;;;;;5.03;85.80;99949.67;1765546;81;21065;-72
2022/11/15 11:37:19;;;;;;;26.65;18.45;;;;;;;5.02;86.00;99940.03;1764776;80;20931;-71
2022/11/15 11:40:30;;;;;;;26.02;18.80;;;;;;;5.01;86.22;99940.23;1763835;80;21082;-71
2022/11/15 11:43:29;;;;;;;24.57;19.05;;;;;;;5.02;86.39;99936.03;1766094;80;21055;-75
2022/11/15 11:46:23;;;;;;;24.37;17.42;;;;;;;5.03;86.52;99927.53;1762580;81;21155;-73
2022/11/15 11:48:55;;;;;;;31.17;19.10;;;;;;;5.09;86.72;99928.01;1721995;80;21004;-77
2022/11/15 11:51:31;;;;;;;35.23;25.95;;;;;;;5.14;86.66;99918.88;1767495;79;21034;-75
2022/11/15 11:54:12;;;;;;;24.05;17.10;;;;;;;5.12;86.71;99915.61;1750170;81;20988;-80
2022/11/15 11:56:41;;;;;;;26.00;18.15;;;;;;;5.09;86.79;99904.84;1748511;81;21016;-80
2022/11/15 11:59:33;;;;;;;27.52;17.98;;;;;;;5.09;86.92;99904.84;1760753;80;22100;-77
2022/11/15 12:02:05;;;;;;;24.52;17.98;;;;;;;5.11;87.11;99901.46;1765702;80;20944;-78
2022/11/15 12:04:38;;;;;;;26.00;16.57;;;;;;;5.09;87.29;99891.52;1748927;81;20955;-80
2022/11/15 12:07:22;;;;;;;20.65;15.90;;;;;;;5.10;87.42;99886.48;1763984;81;20985;-79
2022/11/15 12:09:57;;;;;;;25.48;18.15;;;;;;;5.17;87.52;99879.81;1762802;80;21086;-73
2022/11/15 12:13:11;;;;;;;26.12;18.17;;;;;;;5.17;87.39;99885.97;1741198;82;21123;-72
2022/11/15 12:15:47;;;;;;;;;;;;;;;5.17;87.48;99883.30;1760236;80;21059;-69
2022/11/15 12:18:15;;;;;;;22.77;17.23;;;;;;;5.22;87.58;99876.01;1762645;80;20114;-73
2022/11/15 12:21:06;;;;;;;20.92;17.35;;;;;;;5.27;87.37;99874.32;1763990;80;21094;-75
2022/11/15 12:23:41;;;;;;;24.98;18.80;;;;;;;5.25;87.36;99867.06;1766392;81;21062;-71
2022/11/15 12:26:13;;;;;;;23.18;17.00;;;;;;;5.25;87.55;99865.73;1788889;80;21226;-74
2022/11/15 12:28:57;;;;;;;21.93;16.62;;;;;;;5.26;87.48;99861.22;1788701;79;21016;-73
2022/11/15 12:31:34;;;;;;;28.83;19.00;;;;;;;5.31;87.45;99856.08;1755830;81;20940;-72
2022/11/15 12:34:15;;;;;;;29.25;17.73;;;;;;;5.34;87.39;99853.48;1756050;81;22130;-75
2022/11/15 12:36:43;;;;;;;22.75;17.77;;;;;;;5.34;87.25;99843.64;1750252;81;22193;-77
2022/11/15 12:39:12;;;;;;;27.90;18.15;;;;;;;5.33;87.30;99841.99;1755772;81;21155;-76
2022/11/15 12:41:43;;;;;;;24.12;18.52;;;;;;;5.33;87.31;99841.99;1757451;81;20956;-75
2022/11/15 12:44:38;;;;;;;28.77;22.32;;;;;;;5.33;87.39;99830.51;1755413;81;20997;-76
2022/11/15 12:47:23;;;;;;;33.83;21.55;;;;;;;5.39;87.54;99835.82;1752490;81;21469;-73
2022/11/15 12:49:51;;;;;;;26.35;19.98;;;;;;;5.40;87.34;99832.64;1742927;81;21576;-73
2022/11/15 12:52:18;;;;;;;29.45;20.77;;;;;;;5.37;87.37;99829.87;1755808;80;21560;-73
2022/11/15 12:54:55;;;;;;;38.75;27.60;;;;;;;5.38;87.45;99831.52;1756360;80;21039;-69
2022/11/15 12:57:34;;;;;;;40.50;26.57;;;;;;;5.39;87.54;99823.82;1753625;80;21015;-68
2022/11/15 13:00:24;;;;;;;26.65;17.85;;;;;;;5.48;87.67;99823.05;1756328;81;20996;-70